sensor_id;sensor_type;location;lat;lon;timestamp;P1;durP1;ratioP1;P2;durP2;ratioP2
59872;SDS011;50750;51.636;4.948;2023-04-24T00:02:04;2.50;;;1.50;;
59872;SDS011;50750;51.636;4.948;2023-04-24T00:04:32;2.10;;;1.30;;
59872;SDS011;50750;51.636;4.948;2023-04-24T00:06:59;2.70;;;1.40;;
59872;SDS011;50750;51.636;4.948;2023-04-24T00:09:26;2.40;;;1.50;;
59872;SDS011;50750;51.636;4.948;2023-04-24T00:11:52;3.00;;;1.70;;
59872;SDS011;50750;51.636;4.948;2023-04-24T00:14:20;3.90;;;2.00;;
59872;SDS011;50750;51.636;4.948;2023-04-24T00:16:46;2.70;;;1.80;;
59872;SDS011;50750;51.636;4.948;2023-04-24T00:19:13;2.60;;;1.70;;
59872;SDS011;50750;51.636;4.948;2023-04-24T00:21:39;3.00;;;1.80;;
59872;SDS011;50750;51.636;4.948;2023-04-24T00:24:07;3.00;;;1.90;;
59872;SDS011;50750;51.636;4.948;2023-04-24T00:26:35;2.60;;;1.80;;
59872;SDS011;50750;51.636;4.948;2023-04-24T00:29:01;2.90;;;2.00;;
59872;SDS011;50750;51.636;4.948;2023-04-24T00:31:28;3.40;;;1.80;;
59872;SDS011;50750;51.636;4.948;2023-04-24T00:33:54;4.70;;;2.10;;
59872;SDS011;50750;51.636;4.948;2023-04-24T00:36:21;2.90;;;1.90;;
59872;SDS011;50750;51.636;4.948;2023-04-24T00:38:47;3.10;;;2.10;;
59872;SDS011;50750;51.636;4.948;2023-04-24T00:41:14;2.80;;;1.90;;
59872;SDS011;50750;51.636;4.948;2023-04-24T00:43:40;2.90;;;1.70;;
59872;SDS011;50750;51.636;4.948;2023-04-24T00:46:07;3.20;;;2.10;;
59872;SDS011;50750;51.636;4.948;2023-04-24T00:48:34;3.00;;;1.80;;
59872;SDS011;50750;51.636;4.948;2023-04-24T00:51:01;2.60;;;1.60;;
59872;SDS011;50750;51.636;4.948;2023-04-24T00:53:27;2.60;;;1.70;;
59872;SDS011;50750;51.636;4.948;2023-04-24T00:55:53;2.90;;;1.90;;
59872;SDS011;50750;51.636;4.948;2023-04-24T00:58:20;2.90;;;2.00;;
59872;SDS011;50750;51.636;4.948;2023-04-24T01:00:47;2.40;;;1.70;;
59872;SDS011;50750;51.636;4.948;2023-04-24T01:03:15;3.60;;;2.00;;
59872;SDS011;50750;51.636;4.948;2023-04-24T01:05:42;3.80;;;2.00;;
59872;SDS011;50750;51.636;4.948;2023-04-24T01:08:08;3.60;;;2.40;;
59872;SDS011;50750;51.636;4.948;2023-04-24T01:10:36;2.70;;;2.00;;
59872;SDS011;50750;51.636;4.948;2023-04-24T01:13:03;4.20;;;2.50;;
59872;SDS011;50750;51.636;4.948;2023-04-24T01:15:30;3.60;;;2.40;;
59872;SDS011;50750;51.636;4.948;2023-04-24T01:17:57;3.70;;;2.40;;
59872;SDS011;50750;51.636;4.948;2023-04-24T01:20:23;3.50;;;2.30;;
59872;SDS011;50750;51.636;4.948;2023-04-24T01:22:52;4.00;;;2.30;;
59872;SDS011;50750;51.636;4.948;2023-04-24T01:25:20;3.90;;;2.40;;
59872;SDS011;50750;51.636;4.948;2023-04-24T01:27:48;4.70;;;2.80;;
59872;SDS011;50750;51.636;4.948;2023-04-24T01:30:14;4.70;;;2.10;;
59872;SDS011;50750;51.636;4.948;2023-04-24T01:32:41;3.60;;;2.00;;
59872;SDS011;50750;51.636;4.948;2023-04-24T01:35:10;3.20;;;2.20;;
59872;SDS011;50750;51.636;4.948;2023-04-24T01:37:37;3.10;;;2.10;;
59872;SDS011;50750;51.636;4.948;2023-04-24T01:40:05;3.20;;;1.90;;
59872;SDS011;50750;51.636;4.948;2023-04-24T01:42:32;3.80;;;2.20;;
59872;SDS011;50750;51.636;4.948;2023-04-24T01:45:00;3.20;;;2.10;;
59872;SDS011;50750;51.636;4.948;2023-04-24T01:47:29;4.00;;;2.40;;
59872;SDS011;50750;51.636;4.948;2023-04-24T01:49:57;3.80;;;2.70;;
59872;SDS011;50750;51.636;4.948;2023-04-24T01:52:24;3.50;;;2.60;;
59872;SDS011;50750;51.636;4.948;2023-04-24T01:54:51;4.10;;;2.50;;
59872;SDS011;50750;51.636;4.948;2023-04-24T01:57:18;3.60;;;2.20;;
59872;SDS011;50750;51.636;4.948;2023-04-24T01:59:44;3.90;;;2.30;;
59872;SDS011;50750;51.636;4.948;2023-04-24T02:02:11;3.60;;;2.30;;
59872;SDS011;50750;51.636;4.948;2023-04-24T02:04:38;3.00;;;2.20;;
59872;SDS011;50750;51.636;4.948;2023-04-24T02:07:05;3.80;;;2.50;;
59872;SDS011;50750;51.636;4.948;2023-04-24T02:09:31;4.40;;;2.60;;
59872;SDS011;50750;51.636;4.948;2023-04-24T02:11:58;4.30;;;2.60;;
59872;SDS011;50750;51.636;4.948;2023-04-24T02:14:25;4.40;;;2.30;;
59872;SDS011;50750;51.636;4.948;2023-04-24T02:16:51;3.70;;;2.20;;
59872;SDS011;50750;51.636;4.948;2023-04-24T02:19:19;4.40;;;2.50;;
59872;SDS011;50750;51.636;4.948;2023-04-24T02:21:46;4.30;;;2.60;;
59872;SDS011;50750;51.636;4.948;2023-04-24T02:24:12;3.80;;;2.70;;
59872;SDS011;50750;51.636;4.948;2023-04-24T02:26:38;3.20;;;2.30;;
59872;SDS011;50750;51.636;4.948;2023-04-24T02:29:05;3.70;;;2.40;;
59872;SDS011;50750;51.636;4.948;2023-04-24T02:31:31;3.80;;;2.40;;
59872;SDS011;50750;51.636;4.948;2023-04-24T02:33:58;3.40;;;2.20;;
59872;SDS011;50750;51.636;4.948;2023-04-24T02:36:24;4.90;;;2.70;;
59872;SDS011;50750;51.636;4.948;2023-04-24T02:38:51;4.20;;;2.60;;
59872;SDS011;50750;51.636;4.948;2023-04-24T02:41:17;4.20;;;2.60;;
59872;SDS011;50750;51.636;4.948;2023-04-24T02:43:44;4.30;;;2.80;;
59872;SDS011;50750;51.636;4.948;2023-04-24T02:46:10;4.20;;;2.30;;
59872;SDS011;50750;51.636;4.948;2023-04-24T02:48:37;5.20;;;2.60;;
59872;SDS011;50750;51.636;4.948;2023-04-24T02:51:04;4.30;;;2.40;;
59872;SDS011;50750;51.636;4.948;2023-04-24T02:53:30;4.20;;;2.30;;
59872;SDS011;50750;51.636;4.948;2023-04-24T02:55:57;4.50;;;2.30;;
59872;SDS011;50750;51.636;4.948;2023-04-24T02:58:23;3.50;;;2.20;;
59872;SDS011;50750;51.636;4.948;2023-04-24T03:00:54;3.10;;;2.00;;
59872;SDS011;50750;51.636;4.948;2023-04-24T03:03:23;4.00;;;2.40;;
59872;SDS011;50750;51.636;4.948;2023-04-24T03:05:50;3.70;;;2.40;;
59872;SDS011;50750;51.636;4.948;2023-04-24T03:08:17;5.60;;;2.40;;
59872;SDS011;50750;51.636;4.948;2023-04-24T03:10:43;3.50;;;2.20;;
59872;SDS011;50750;51.636;4.948;2023-04-24T03:13:10;5.90;;;2.70;;
59872;SDS011;50750;51.636;4.948;2023-04-24T03:15:36;4.10;;;2.40;;
59872;SDS011;50750;51.636;4.948;2023-04-24T03:18:03;4.00;;;2.40;;
59872;SDS011;50750;51.636;4.948;2023-04-24T03:20:29;4.70;;;2.60;;
59872;SDS011;50750;51.636;4.948;2023-04-24T03:22:56;4.30;;;2.50;;
59872;SDS011;50750;51.636;4.948;2023-04-24T03:25:23;5.20;;;2.40;;
59872;SDS011;50750;51.636;4.948;2023-04-24T03:27:49;3.40;;;2.30;;
59872;SDS011;50750;51.636;4.948;2023-04-24T03:30:16;5.40;;;2.70;;
59872;SDS011;50750;51.636;4.948;2023-04-24T03:32:42;3.60;;;2.30;;
59872;SDS011;50750;51.636;4.948;2023-04-24T03:35:09;4.60;;;2.60;;
59872;SDS011;50750;51.636;4.948;2023-04-24T03:37:36;5.10;;;2.40;;
59872;SDS011;50750;51.636;4.948;2023-04-24T03:40:02;3.70;;;2.20;;
59872;SDS011;50750;51.636;4.948;2023-04-24T03:42:29;4.10;;;2.20;;
59872;SDS011;50750;51.636;4.948;2023-04-24T03:44:56;4.40;;;2.40;;
59872;SDS011;50750;51.636;4.948;2023-04-24T03:47:22;3.40;;;2.20;;
59872;SDS011;50750;51.636;4.948;2023-04-24T03:49:48;3.80;;;2.30;;
59872;SDS011;50750;51.636;4.948;2023-04-24T03:52:15;3.60;;;2.20;;
59872;SDS011;50750;51.636;4.948;2023-04-24T03:54:42;4.20;;;2.20;;
59872;SDS011;50750;51.636;4.948;2023-04-24T03:57:08;4.30;;;2.20;;
59872;SDS011;50750;51.636;4.948;2023-04-24T03:59:35;4.30;;;2.40;;
59872;SDS011;50750;51.636;4.948;2023-04-24T04:02:01;4.00;;;2.20;;
59872;SDS011;50750;51.636;4.948;2023-04-24T04:04:27;3.80;;;2.10;;
59872;SDS011;50750;51.636;4.948;2023-04-24T04:06:54;3.70;;;1.80;;
59872;SDS011;50750;51.636;4.948;2023-04-24T04:09:20;3.70;;;1.70;;
59872;SDS011;50750;51.636;4.948;2023-04-24T04:11:47;3.40;;;1.90;;
59872;SDS011;50750;51.636;4.948;2023-04-24T04:14:13;3.50;;;1.90;;
59872;SDS011;50750;51.636;4.948;2023-04-24T04:16:40;2.90;;;1.70;;
59872;SDS011;50750;51.636;4.948;2023-04-24T04:19:06;4.80;;;1.70;;
59872;SDS011;50750;51.636;4.948;2023-04-24T04:21:33;2.80;;;1.70;;
59872;SDS011;50750;51.636;4.948;2023-04-24T04:24:00;2.60;;;1.60;;
59872;SDS011;50750;51.636;4.948;2023-04-24T04:26:26;3.10;;;1.60;;
59872;SDS011;50750;51.636;4.948;2023-04-24T04:28:53;3.00;;;1.90;;
59872;SDS011;50750;51.636;4.948;2023-04-24T04:31:20;2.80;;;1.50;;
59872;SDS011;50750;51.636;4.948;2023-04-24T04:33:47;2.40;;;1.50;;
59872;SDS011;50750;51.636;4.948;2023-04-24T04:36:13;3.70;;;1.90;;
59872;SDS011;50750;51.636;4.948;2023-04-24T04:38:40;2.70;;;1.60;;
59872;SDS011;50750;51.636;4.948;2023-04-24T04:41:09;2.90;;;1.60;;
59872;SDS011;50750;51.636;4.948;2023-04-24T04:43:35;3.00;;;1.60;;
59872;SDS011;50750;51.636;4.948;2023-04-24T04:46:02;3.30;;;1.50;;
59872;SDS011;50750;51.636;4.948;2023-04-24T04:48:29;2.50;;;1.40;;
59872;SDS011;50750;51.636;4.948;2023-04-24T04:50:57;3.80;;;1.50;;
59872;SDS011;50750;51.636;4.948;2023-04-24T04:53:24;2.50;;;1.40;;
59872;SDS011;50750;51.636;4.948;2023-04-24T04:55:52;2.60;;;1.40;;
59872;SDS011;50750;51.636;4.948;2023-04-24T04:58:18;2.60;;;1.30;;
59872;SDS011;50750;51.636;4.948;2023-04-24T05:00:45;2.40;;;1.20;;
59872;SDS011;50750;51.636;4.948;2023-04-24T05:03:12;3.00;;;1.30;;
59872;SDS011;50750;51.636;4.948;2023-04-24T05:05:38;3.00;;;1.30;;
59872;SDS011;50750;51.636;4.948;2023-04-24T05:08:07;2.80;;;1.50;;
59872;SDS011;50750;51.636;4.948;2023-04-24T05:10:34;2.40;;;1.30;;
59872;SDS011;50750;51.636;4.948;2023-04-24T05:13:03;2.90;;;1.40;;
59872;SDS011;50750;51.636;4.948;2023-04-24T05:15:30;2.20;;;1.30;;
59872;SDS011;50750;51.636;4.948;2023-04-24T05:17:57;2.70;;;1.20;;
59872;SDS011;50750;51.636;4.948;2023-04-24T05:20:23;2.90;;;1.50;;
59872;SDS011;50750;51.636;4.948;2023-04-24T05:22:50;3.10;;;1.20;;
59872;SDS011;50750;51.636;4.948;2023-04-24T05:25:16;3.40;;;1.30;;
59872;SDS011;50750;51.636;4.948;2023-04-24T05:27:43;2.80;;;1.20;;
59872;SDS011;50750;51.636;4.948;2023-04-24T05:30:10;2.90;;;1.30;;
59872;SDS011;50750;51.636;4.948;2023-04-24T05:32:37;2.40;;;1.10;;
59872;SDS011;50750;51.636;4.948;2023-04-24T05:35:03;3.20;;;1.50;;
59872;SDS011;50750;51.636;4.948;2023-04-24T05:37:30;2.70;;;1.40;;
59872;SDS011;50750;51.636;4.948;2023-04-24T05:39:57;2.50;;;1.20;;
59872;SDS011;50750;51.636;4.948;2023-04-24T05:42:23;2.50;;;1.30;;
59872;SDS011;50750;51.636;4.948;2023-04-24T05:44:50;2.40;;;1.40;;
59872;SDS011;50750;51.636;4.948;2023-04-24T05:47:17;2.60;;;1.30;;
59872;SDS011;50750;51.636;4.948;2023-04-24T05:49:43;2.40;;;1.20;;
59872;SDS011;50750;51.636;4.948;2023-04-24T05:52:09;3.70;;;1.30;;
59872;SDS011;50750;51.636;4.948;2023-04-24T05:54:36;3.90;;;1.50;;
59872;SDS011;50750;51.636;4.948;2023-04-24T05:57:03;3.70;;;1.60;;
59872;SDS011;50750;51.636;4.948;2023-04-24T05:59:37;2.90;;;1.50;;
59872;SDS011;50750;51.636;4.948;2023-04-24T06:02:07;2.90;;;1.30;;
59872;SDS011;50750;51.636;4.948;2023-04-24T06:04:33;3.70;;;1.70;;
59872;SDS011;50750;51.636;4.948;2023-04-24T06:07:00;3.60;;;1.80;;
59872;SDS011;50750;51.636;4.948;2023-04-24T06:09:27;4.10;;;1.70;;
59872;SDS011;50750;51.636;4.948;2023-04-24T06:11:53;3.80;;;1.80;;
59872;SDS011;50750;51.636;4.948;2023-04-24T06:14:20;3.30;;;1.80;;
59872;SDS011;50750;51.636;4.948;2023-04-24T06:16:47;4.20;;;2.10;;
59872;SDS011;50750;51.636;4.948;2023-04-24T06:19:13;4.10;;;2.50;;
59872;SDS011;50750;51.636;4.948;2023-04-24T06:21:40;4.50;;;2.20;;
59872;SDS011;50750;51.636;4.948;2023-04-24T06:24:06;5.30;;;2.20;;
59872;SDS011;50750;51.636;4.948;2023-04-24T06:26:33;4.70;;;2.40;;
59872;SDS011;50750;51.636;4.948;2023-04-24T06:28:59;4.70;;;2.50;;
59872;SDS011;50750;51.636;4.948;2023-04-24T06:31:26;4.30;;;2.60;;
59872;SDS011;50750;51.636;4.948;2023-04-24T06:33:53;5.60;;;2.60;;
59872;SDS011;50750;51.636;4.948;2023-04-24T06:36:20;5.90;;;2.80;;
59872;SDS011;50750;51.636;4.948;2023-04-24T06:38:46;4.20;;;2.70;;
59872;SDS011;50750;51.636;4.948;2023-04-24T06:41:13;6.00;;;2.50;;
59872;SDS011;50750;51.636;4.948;2023-04-24T06:43:39;5.00;;;2.70;;
59872;SDS011;50750;51.636;4.948;2023-04-24T06:46:06;4.30;;;2.50;;
59872;SDS011;50750;51.636;4.948;2023-04-24T06:48:33;5.90;;;2.70;;
59872;SDS011;50750;51.636;4.948;2023-04-24T06:50:59;5.40;;;2.70;;
59872;SDS011;50750;51.636;4.948;2023-04-24T06:53:26;4.00;;;2.20;;
59872;SDS011;50750;51.636;4.948;2023-04-24T06:55:53;4.70;;;2.70;;
59872;SDS011;50750;51.636;4.948;2023-04-24T06:58:20;5.00;;;3.00;;
59872;SDS011;50750;51.636;4.948;2023-04-24T07:00:47;5.10;;;2.40;;
59872;SDS011;50750;51.636;4.948;2023-04-24T07:03:13;5.20;;;2.60;;
59872;SDS011;50750;51.636;4.948;2023-04-24T07:05:40;8.00;;;2.40;;
59872;SDS011;50750;51.636;4.948;2023-04-24T07:08:07;4.40;;;2.50;;
59872;SDS011;50750;51.636;4.948;2023-04-24T07:10:37;6.00;;;2.50;;
59872;SDS011;50750;51.636;4.948;2023-04-24T07:13:04;5.30;;;2.30;;
59872;SDS011;50750;51.636;4.948;2023-04-24T07:15:30;5.80;;;2.40;;
59872;SDS011;50750;51.636;4.948;2023-04-24T07:17:58;6.50;;;2.50;;
59872;SDS011;50750;51.636;4.948;2023-04-24T07:20:25;4.80;;;2.40;;
59872;SDS011;50750;51.636;4.948;2023-04-24T07:22:52;4.60;;;2.30;;
59872;SDS011;50750;51.636;4.948;2023-04-24T07:25:20;7.20;;;2.70;;
59872;SDS011;50750;51.636;4.948;2023-04-24T07:27:46;6.50;;;2.60;;
59872;SDS011;50750;51.636;4.948;2023-04-24T07:30:13;6.40;;;2.30;;
59872;SDS011;50750;51.636;4.948;2023-04-24T07:32:39;5.80;;;2.40;;
59872;SDS011;50750;51.636;4.948;2023-04-24T07:35:06;5.00;;;2.20;;
59872;SDS011;50750;51.636;4.948;2023-04-24T07:37:33;9.90;;;3.00;;
59872;SDS011;50750;51.636;4.948;2023-04-24T07:40:00;8.60;;;2.80;;
59872;SDS011;50750;51.636;4.948;2023-04-24T07:42:27;6.20;;;2.40;;
59872;SDS011;50750;51.636;4.948;2023-04-24T07:44:56;6.60;;;2.40;;
59872;SDS011;50750;51.636;4.948;2023-04-24T07:47:23;6.70;;;2.50;;
59872;SDS011;50750;51.636;4.948;2023-04-24T07:49:49;8.60;;;2.60;;
59872;SDS011;50750;51.636;4.948;2023-04-24T07:52:16;5.50;;;2.40;;
59872;SDS011;50750;51.636;4.948;2023-04-24T07:54:43;8.40;;;2.70;;
59872;SDS011;50750;51.636;4.948;2023-04-24T07:57:09;5.50;;;2.10;;
59872;SDS011;50750;51.636;4.948;2023-04-24T07:59:36;5.20;;;2.10;;
59872;SDS011;50750;51.636;4.948;2023-04-24T08:02:02;5.60;;;2.30;;
59872;SDS011;50750;51.636;4.948;2023-04-24T08:04:29;6.80;;;2.40;;
59872;SDS011;50750;51.636;4.948;2023-04-24T08:06:55;4.60;;;2.00;;
59872;SDS011;50750;51.636;4.948;2023-04-24T08:09:22;7.70;;;2.50;;
59872;SDS011;50750;51.636;4.948;2023-04-24T08:11:48;5.90;;;2.10;;
59872;SDS011;50750;51.636;4.948;2023-04-24T08:14:15;5.20;;;2.00;;
59872;SDS011;50750;51.636;4.948;2023-04-24T08:16:42;6.00;;;2.30;;
59872;SDS011;50750;51.636;4.948;2023-04-24T08:19:08;8.30;;;2.80;;
59872;SDS011;50750;51.636;4.948;2023-04-24T08:21:35;6.80;;;2.30;;
59872;SDS011;50750;51.636;4.948;2023-04-24T08:24:02;5.00;;;2.40;;
59872;SDS011;50750;51.636;4.948;2023-04-24T08:26:31;5.60;;;2.20;;
59872;SDS011;50750;51.636;4.948;2023-04-24T08:28:58;5.70;;;2.20;;
59872;SDS011;50750;51.636;4.948;2023-04-24T08:31:24;6.00;;;2.10;;
59872;SDS011;50750;51.636;4.948;2023-04-24T08:33:52;6.90;;;2.10;;
59872;SDS011;50750;51.636;4.948;2023-04-24T08:36:18;5.30;;;2.20;;
59872;SDS011;50750;51.636;4.948;2023-04-24T08:38:45;6.10;;;2.30;;
59872;SDS011;50750;51.636;4.948;2023-04-24T08:41:12;5.70;;;2.10;;
59872;SDS011;50750;51.636;4.948;2023-04-24T08:43:41;6.10;;;2.10;;
59872;SDS011;50750;51.636;4.948;2023-04-24T08:46:08;6.70;;;1.90;;
59872;SDS011;50750;51.636;4.948;2023-04-24T08:48:36;6.20;;;1.80;;
59872;SDS011;50750;51.636;4.948;2023-04-24T08:51:06;6.70;;;2.10;;
59872;SDS011;50750;51.636;4.948;2023-04-24T08:53:33;4.80;;;1.70;;
59872;SDS011;50750;51.636;4.948;2023-04-24T08:56:01;4.30;;;1.50;;
59872;SDS011;50750;51.636;4.948;2023-04-24T08:58:28;5.70;;;1.80;;
59872;SDS011;50750;51.636;4.948;2023-04-24T09:00:57;5.40;;;2.20;;
59872;SDS011;50750;51.636;4.948;2023-04-24T09:03:25;4.40;;;1.60;;
59872;SDS011;50750;51.636;4.948;2023-04-24T09:05:53;6.80;;;1.80;;
59872;SDS011;50750;51.636;4.948;2023-04-24T09:08:22;5.30;;;1.60;;
59872;SDS011;50750;51.636;4.948;2023-04-24T09:10:51;5.40;;;1.90;;
59872;SDS011;50750;51.636;4.948;2023-04-24T09:13:18;6.50;;;2.30;;
59872;SDS011;50750;51.636;4.948;2023-04-24T09:15:46;3.70;;;1.60;;
59872;SDS011;50750;51.636;4.948;2023-04-24T09:18:13;4.50;;;1.80;;
59872;SDS011;50750;51.636;4.948;2023-04-24T09:20:59;4.30;;;1.60;;
59872;SDS011;50750;51.636;4.948;2023-04-24T09:23:27;4.40;;;1.60;;
59872;SDS011;50750;51.636;4.948;2023-04-24T09:25:55;5.10;;;1.50;;
59872;SDS011;50750;51.636;4.948;2023-04-24T09:28:28;6.20;;;1.60;;
59872;SDS011;50750;51.636;4.948;2023-04-24T09:31:06;4.50;;;1.60;;
59872;SDS011;50750;51.636;4.948;2023-04-24T09:33:33;6.40;;;1.80;;
59872;SDS011;50750;51.636;4.948;2023-04-24T09:36:01;5.70;;;1.60;;
59872;SDS011;50750;51.636;4.948;2023-04-24T09:38:35;3.30;;;1.30;;
59872;SDS011;50750;51.636;4.948;2023-04-24T09:41:07;5.20;;;1.60;;
59872;SDS011;50750;51.636;4.948;2023-04-24T09:43:34;4.40;;;1.70;;
59872;SDS011;50750;51.636;4.948;2023-04-24T09:46:06;5.60;;;1.80;;
59872;SDS011;50750;51.636;4.948;2023-04-24T09:48:34;3.90;;;1.30;;
59872;SDS011;50750;51.636;4.948;2023-04-24T09:51:03;2.80;;;1.30;;
59872;SDS011;50750;51.636;4.948;2023-04-24T09:53:33;4.50;;;1.50;;
59872;SDS011;50750;51.636;4.948;2023-04-24T09:56:06;4.20;;;1.60;;
59872;SDS011;50750;51.636;4.948;2023-04-24T09:58:35;3.30;;;1.30;;
59872;SDS011;50750;51.636;4.948;2023-04-24T10:01:02;3.90;;;1.40;;
59872;SDS011;50750;51.636;4.948;2023-04-24T10:03:30;4.40;;;1.10;;
59872;SDS011;50750;51.636;4.948;2023-04-24T10:05:58;4.00;;;1.40;;
59872;SDS011;50750;51.636;4.948;2023-04-24T10:08:25;2.90;;;1.10;;
59872;SDS011;50750;51.636;4.948;2023-04-24T10:10:52;3.50;;;1.00;;
59872;SDS011;50750;51.636;4.948;2023-04-24T10:13:19;3.80;;;1.20;;
59872;SDS011;50750;51.636;4.948;2023-04-24T10:15:45;3.90;;;1.30;;
59872;SDS011;50750;51.636;4.948;2023-04-24T10:18:14;3.50;;;1.30;;
59872;SDS011;50750;51.636;4.948;2023-04-24T10:20:42;3.20;;;1.10;;
59872;SDS011;50750;51.636;4.948;2023-04-24T10:23:09;2.20;;;1.00;;
59872;SDS011;50750;51.636;4.948;2023-04-24T10:25:37;3.80;;;1.00;;
59872;SDS011;50750;51.636;4.948;2023-04-24T10:28:04;2.70;;;1.00;;
59872;SDS011;50750;51.636;4.948;2023-04-24T10:30:32;4.00;;;1.20;;
59872;SDS011;50750;51.636;4.948;2023-04-24T10:35:30;2.50;;;0.80;;
59872;SDS011;50750;51.636;4.948;2023-04-24T10:38:01;3.40;;;1.00;;
59872;SDS011;50750;51.636;4.948;2023-04-24T10:40:32;3.20;;;1.00;;
59872;SDS011;50750;51.636;4.948;2023-04-24T10:43:07;1.90;;;0.80;;
59872;SDS011;50750;51.636;4.948;2023-04-24T10:45:37;3.60;;;1.00;;
59872;SDS011;50750;51.636;4.948;2023-04-24T10:48:05;3.10;;;1.00;;
59872;SDS011;50750;51.636;4.948;2023-04-24T10:50:46;2.70;;;0.90;;
59872;SDS011;50750;51.636;4.948;2023-04-24T10:53:17;2.90;;;0.80;;
59872;SDS011;50750;51.636;4.948;2023-04-24T10:56:19;2.70;;;0.90;;
59872;SDS011;50750;51.636;4.948;2023-04-24T10:58:41;2.00;;;0.70;;
59872;SDS011;50750;51.636;4.948;2023-04-24T11:01:25;3.50;;;0.90;;
59872;SDS011;50750;51.636;4.948;2023-04-24T11:03:59;2.90;;;0.80;;
59872;SDS011;50750;51.636;4.948;2023-04-24T11:06:32;2.10;;;0.80;;
59872;SDS011;50750;51.636;4.948;2023-04-24T11:11:31;3.30;;;1.20;;
59872;SDS011;50750;51.636;4.948;2023-04-24T11:16:32;3.10;;;0.70;;
59872;SDS011;50750;51.636;4.948;2023-04-24T11:19:09;3.50;;;0.90;;
59872;SDS011;50750;51.636;4.948;2023-04-24T11:21:47;3.10;;;0.80;;
59872;SDS011;50750;51.636;4.948;2023-04-24T11:26:59;2.70;;;0.80;;
59872;SDS011;50750;51.636;4.948;2023-04-24T11:32:33;4.30;;;0.90;;
59872;SDS011;50750;51.636;4.948;2023-04-24T11:35:04;2.70;;;0.90;;
59872;SDS011;50750;51.636;4.948;2023-04-24T11:37:36;2.80;;;1.00;;
59872;SDS011;50750;51.636;4.948;2023-04-24T11:40:04;2.90;;;0.80;;
59872;SDS011;50750;51.636;4.948;2023-04-24T11:42:36;2.80;;;0.80;;
59872;SDS011;50750;51.636;4.948;2023-04-24T11:45:08;3.70;;;1.10;;
59872;SDS011;50750;51.636;4.948;2023-04-24T11:47:36;4.30;;;1.20;;
59872;SDS011;50750;51.636;4.948;2023-04-24T11:50:04;3.00;;;0.90;;
59872;SDS011;50750;51.636;4.948;2023-04-24T11:52:33;4.30;;;0.90;;
59872;SDS011;50750;51.636;4.948;2023-04-24T11:55:02;3.10;;;0.80;;
59872;SDS011;50750;51.636;4.948;2023-04-24T11:57:29;3.30;;;0.80;;
59872;SDS011;50750;51.636;4.948;2023-04-24T12:00:01;2.80;;;0.80;;
59872;SDS011;50750;51.636;4.948;2023-04-24T12:02:29;3.10;;;0.80;;
59872;SDS011;50750;51.636;4.948;2023-04-24T12:04:55;1.40;;;0.60;;
59872;SDS011;50750;51.636;4.948;2023-04-24T12:07:22;2.50;;;0.80;;
59872;SDS011;50750;51.636;4.948;2023-04-24T12:09:57;2.40;;;0.80;;
59872;SDS011;50750;51.636;4.948;2023-04-24T12:12:26;2.30;;;0.90;;
59872;SDS011;50750;51.636;4.948;2023-04-24T12:14:54;3.60;;;0.90;;
59872;SDS011;50750;51.636;4.948;2023-04-24T12:17:29;2.50;;;0.70;;
59872;SDS011;50750;51.636;4.948;2023-04-24T12:20:01;2.90;;;0.70;;
59872;SDS011;50750;51.636;4.948;2023-04-24T12:25:29;3.70;;;1.00;;
59872;SDS011;50750;51.636;4.948;2023-04-24T12:28:08;4.10;;;0.90;;
59872;SDS011;50750;51.636;4.948;2023-04-24T12:30:42;2.50;;;0.80;;
59872;SDS011;50750;51.636;4.948;2023-04-24T12:33:10;1.80;;;0.60;;
59872;SDS011;50750;51.636;4.948;2023-04-24T12:35:39;1.90;;;0.80;;
59872;SDS011;50750;51.636;4.948;2023-04-24T12:38:07;1.90;;;0.60;;
59872;SDS011;50750;51.636;4.948;2023-04-24T12:40:41;2.00;;;0.60;;
59872;SDS011;50750;51.636;4.948;2023-04-24T12:43:15;3.60;;;0.80;;
59872;SDS011;50750;51.636;4.948;2023-04-24T12:45:43;1.70;;;0.70;;
59872;SDS011;50750;51.636;4.948;2023-04-24T12:48:11;3.20;;;0.70;;
59872;SDS011;50750;51.636;4.948;2023-04-24T12:50:40;3.20;;;0.70;;
59872;SDS011;50750;51.636;4.948;2023-04-24T12:53:07;2.40;;;0.70;;
59872;SDS011;50750;51.636;4.948;2023-04-24T12:55:35;1.50;;;0.60;;
59872;SDS011;50750;51.636;4.948;2023-04-24T12:58:03;1.70;;;0.70;;
59872;SDS011;50750;51.636;4.948;2023-04-24T13:00:29;1.80;;;0.70;;
59872;SDS011;50750;51.636;4.948;2023-04-24T13:02:56;2.00;;;0.70;;
59872;SDS011;50750;51.636;4.948;2023-04-24T13:05:22;2.40;;;0.70;;
59872;SDS011;50750;51.636;4.948;2023-04-24T13:07:49;3.30;;;0.70;;
59872;SDS011;50750;51.636;4.948;2023-04-24T13:10:15;3.50;;;0.80;;
59872;SDS011;50750;51.636;4.948;2023-04-24T13:12:42;1.50;;;0.70;;
59872;SDS011;50750;51.636;4.948;2023-04-24T13:15:11;2.90;;;0.60;;
59872;SDS011;50750;51.636;4.948;2023-04-24T13:17:38;2.90;;;0.70;;
59872;SDS011;50750;51.636;4.948;2023-04-24T13:20:05;2.30;;;0.70;;
59872;SDS011;50750;51.636;4.948;2023-04-24T13:22:32;1.60;;;0.70;;
59872;SDS011;50750;51.636;4.948;2023-04-24T13:24:58;2.00;;;0.70;;
59872;SDS011;50750;51.636;4.948;2023-04-24T13:27:25;2.20;;;0.70;;
59872;SDS011;50750;51.636;4.948;2023-04-24T13:29:52;2.50;;;0.80;;
59872;SDS011;50750;51.636;4.948;2023-04-24T13:32:18;2.70;;;0.80;;
59872;SDS011;50750;51.636;4.948;2023-04-24T13:34:45;3.10;;;0.90;;
59872;SDS011;50750;51.636;4.948;2023-04-24T13:37:12;2.20;;;1.00;;
59872;SDS011;50750;51.636;4.948;2023-04-24T13:39:38;2.90;;;0.70;;
59872;SDS011;50750;51.636;4.948;2023-04-24T13:42:05;3.40;;;1.00;;
59872;SDS011;50750;51.636;4.948;2023-04-24T13:44:32;2.90;;;1.00;;
59872;SDS011;50750;51.636;4.948;2023-04-24T13:46:58;2.50;;;0.90;;
59872;SDS011;50750;51.636;4.948;2023-04-24T13:49:26;3.90;;;0.90;;
59872;SDS011;50750;51.636;4.948;2023-04-24T13:51:53;2.40;;;0.90;;
59872;SDS011;50750;51.636;4.948;2023-04-24T13:54:21;3.60;;;1.00;;
59872;SDS011;50750;51.636;4.948;2023-04-24T13:56:49;3.20;;;0.90;;
59872;SDS011;50750;51.636;4.948;2023-04-24T13:59:16;2.50;;;0.80;;
59872;SDS011;50750;51.636;4.948;2023-04-24T14:01:43;4.00;;;1.20;;
59872;SDS011;50750;51.636;4.948;2023-04-24T14:04:11;3.20;;;0.80;;
59872;SDS011;50750;51.636;4.948;2023-04-24T14:06:37;3.30;;;0.80;;
59872;SDS011;50750;51.636;4.948;2023-04-24T14:09:04;3.50;;;0.90;;
59872;SDS011;50750;51.636;4.948;2023-04-24T14:11:30;3.90;;;0.90;;
59872;SDS011;50750;51.636;4.948;2023-04-24T14:13:57;2.60;;;1.00;;
59872;SDS011;50750;51.636;4.948;2023-04-24T14:16:23;2.60;;;1.00;;
59872;SDS011;50750;51.636;4.948;2023-04-24T14:18:50;3.90;;;0.90;;
59872;SDS011;50750;51.636;4.948;2023-04-24T14:21:17;2.90;;;1.10;;
59872;SDS011;50750;51.636;4.948;2023-04-24T14:23:43;2.30;;;1.00;;
59872;SDS011;50750;51.636;4.948;2023-04-24T14:26:10;3.20;;;1.10;;
59872;SDS011;50750;51.636;4.948;2023-04-24T14:28:37;5.40;;;1.10;;
59872;SDS011;50750;51.636;4.948;2023-04-24T14:31:03;3.10;;;0.90;;
59872;SDS011;50750;51.636;4.948;2023-04-24T14:33:30;4.10;;;1.30;;
59872;SDS011;50750;51.636;4.948;2023-04-24T14:35:56;3.30;;;1.00;;
59872;SDS011;50750;51.636;4.948;2023-04-24T14:38:23;4.70;;;1.20;;
59872;SDS011;50750;51.636;4.948;2023-04-24T14:40:49;5.90;;;1.10;;
59872;SDS011;50750;51.636;4.948;2023-04-24T14:43:16;4.50;;;1.20;;
59872;SDS011;50750;51.636;4.948;2023-04-24T14:45:43;4.60;;;1.40;;
59872;SDS011;50750;51.636;4.948;2023-04-24T14:48:09;3.90;;;1.20;;
59872;SDS011;50750;51.636;4.948;2023-04-24T14:50:37;3.70;;;1.00;;
59872;SDS011;50750;51.636;4.948;2023-04-24T14:53:04;3.20;;;1.10;;
59872;SDS011;50750;51.636;4.948;2023-04-24T14:55:31;3.90;;;1.30;;
59872;SDS011;50750;51.636;4.948;2023-04-24T14:57:58;4.80;;;1.20;;
59872;SDS011;50750;51.636;4.948;2023-04-24T15:00:25;6.20;;;1.40;;
59872;SDS011;50750;51.636;4.948;2023-04-24T15:02:51;3.60;;;1.40;;
59872;SDS011;50750;51.636;4.948;2023-04-24T15:05:18;3.80;;;1.20;;
59872;SDS011;50750;51.636;4.948;2023-04-24T15:07:45;4.20;;;1.20;;